Time;durP1;ratioP1;P1;durP2;ratioP2;P2;SDS_P1;SDS_P2;PMS_P1;PMS_P2;Temp;Humidity;BMP_temperature;BMP_pressure;BME280_temperature;BME280_humidity;BME280_pressure;Samples;Min_cycle;Max_cycle;Signal;HPM_P1;HPM_P2
2021/08/13 00:01:20;;;;;;;1.10;0.75;;;19.70;71.10;;;;;;5056284;28;20502;-78
2021/08/13 00:03:45;;;;;;;0.90;0.80;;;19.70;71.40;;;;;;5056021;28;20035;-78
2021/08/13 00:06:11;;;;;;;1.05;0.73;;;19.80;71.00;;;;;;5056241;28;20037;-78
2021/08/13 00:08:37;;;;;;;0.88;0.70;;;19.80;71.10;;;;;;5056012;28;20028;-78
2021/08/13 00:11:03;;;;;;;1.35;0.68;;;19.90;70.90;;;;;;5056082;28;20040;-78
2021/08/13 00:13:29;;;;;;;0.90;0.80;;;19.80;71.00;;;;;;5056337;28;20029;-78
2021/08/13 00:15:54;;;;;;;1.13;0.80;;;19.80;71.30;;;;;;5055780;28;20036;-79
2021/08/13 00:18:20;;;;;;;0.95;0.70;;;19.80;71.40;;;;;;5056215;28;20108;-79
2021/08/13 00:20:46;;;;;;;0.90;0.77;;;19.80;71.50;;;;;;5056064;28;20483;-78
2021/08/13 00:23:11;;;;;;;1.20;0.80;;;19.80;71.70;;;;;;5054583;28;20100;-78
2021/08/13 00:25:37;;;;;;;1.10;0.80;;;19.80;71.90;;;;;;5067621;28;20040;-78
2021/08/13 00:28:03;;;;;;;0.90;0.65;;;19.90;71.60;;;;;;5074190;28;20035;-78
2021/08/13 00:30:29;;;;;;;1.25;0.80;;;19.90;71.70;;;;;;5068687;28;20028;-78
2021/08/13 00:32:54;;;;;;;1.17;1.00;;;19.90;71.60;;;;;;5055566;28;20029;-78
2021/08/13 00:35:20;;;;;;;1.27;0.80;;;19.80;72.60;;;;;;5054430;28;20036;-78
2021/08/13 00:37:46;;;;;;;0.98;0.60;;;19.80;72.60;;;;;;5055886;28;20024;-78
2021/08/13 00:40:12;;;;;;;1.17;0.80;;;19.80;72.20;;;;;;5058148;28;20021;-78
2021/08/13 00:42:37;;;;;;;1.38;0.80;;;19.80;72.30;;;;;;5075385;28;20036;-78
2021/08/13 00:45:05;;;;;;;1.00;0.80;;;19.90;72.50;;;;;;5075884;28;20355;-78
2021/08/13 00:47:30;;;;;;;0.98;0.80;;;19.90;72.20;;;;;;5075464;28;20024;-78
2021/08/13 00:49:56;;;;;;;0.93;0.60;;;19.90;72.20;;;;;;5069511;28;20045;-78
2021/08/13 00:52:22;;;;;;;0.88;0.68;;;19.90;72.40;;;;;;5070988;28;20044;-78
2021/08/13 00:54:48;;;;;;;1.00;0.73;;;19.90;72.10;;;;;;5055499;28;20021;-78
2021/08/13 00:57:14;;;;;;;0.80;0.60;;;19.90;72.20;;;;;;5071092;28;20170;-78
2021/08/13 00:59:41;;;;;;;2.03;0.95;;;19.90;72.60;;;;;;5069728;28;20056;-78
2021/08/13 01:02:07;;;;;;;1.10;0.70;;;19.90;72.50;;;;;;5055454;28;20387;-78
2021/08/13 01:04:51;;;;;;;1.27;0.68;;;19.90;72.30;;;;;;5055378;28;20025;-78
2021/08/13 01:07:17;;;;;;;1.10;0.63;;;19.90;72.60;;;;;;5053693;28;20033;-78
2021/08/13 01:09:43;;;;;;;1.42;0.77;;;19.90;72.50;;;;;;5054119;28;20044;-79
2021/08/13 01:12:24;;;;;;;0.70;0.50;;;19.90;72.50;;;;;;5055039;28;20033;-78
2021/08/13 01:15:03;;;;;;;0.80;0.60;;;19.90;72.10;;;;;;5053892;28;20099;-78
2021/08/13 01:17:54;;;;;;;1.00;0.63;;;19.90;72.40;;;;;;5054195;28;20471;-78
2021/08/13 01:20:38;;;;;;;1.30;0.77;;;20.00;72.30;;;;;;5054653;28;20210;-78
2021/08/13 01:23:11;;;;;;;1.20;0.70;;;20.00;72.60;;;;;;5055265;28;20048;-79
2021/08/13 01:25:41;;;;;;;0.80;0.50;;;20.00;72.50;;;;;;5054232;28;20024;-78
2021/08/13 01:28:24;;;;;;;0.80;0.60;;;20.00;72.40;;;;;;5055254;28;20107;-78
2021/08/13 01:30:50;;;;;;;1.33;0.73;;;20.00;72.10;;;;;;5053848;28;20037;-78
2021/08/13 01:33:17;;;;;;;0.85;0.63;;;20.00;72.20;;;;;;5053647;28;20088;-78
2021/08/13 01:35:46;;;;;;;1.17;0.60;;;20.00;72.10;;;;;;5067894;28;20111;-78
2021/08/13 01:38:21;;;;;;;0.90;0.60;;;20.00;72.20;;;;;;5073938;28;20082;-78
2021/08/13 01:40:50;;;;;;;1.15;0.73;;;20.00;72.30;;;;;;5075656;28;20078;-78
2021/08/13 01:43:21;;;;;;;0.85;0.60;;;20.00;72.40;;;;;;5076781;28;20465;-77
2021/08/13 01:45:47;;;;;;;0.90;0.63;;;20.00;72.20;;;;;;5079011;28;20032;-78
2021/08/13 01:48:15;;;;;;;0.90;0.70;;;20.00;72.20;;;;;;5077419;28;20513;-78
2021/08/13 01:50:42;;;;;;;0.80;0.50;;;20.00;72.20;;;;;;5078780;28;20020;-78
2021/08/13 01:53:08;;;;;;;1.08;0.75;;;20.00;72.20;;;;;;5066055;28;20044;-78
2021/08/13 01:55:35;;;;;;;0.80;0.60;;;19.90;72.50;;;;;;5057540;28;20092;-78
2021/08/13 01:58:01;;;;;;;1.20;0.80;;;19.90;72.60;;;;;;5064295;28;20115;-78
2021/08/13 02:00:27;;;;;;;0.98;0.70;;;19.90;72.40;;;;;;5077341;28;20032;-78
2021/08/13 02:02:54;;;;;;;0.90;0.60;;;19.90;72.10;;;;;;5074268;28;20036;-78
2021/08/13 02:05:23;;;;;;;0.90;0.70;;;19.90;72.30;;;;;;5058492;28;20021;-78
2021/08/13 02:07:50;;;;;;;1.00;0.63;;;19.80;72.30;;;;;;5062195;28;20029;-78
2021/08/13 02:10:16;;;;;;;1.10;0.60;;;19.80;72.40;;;;;;5058490;28;20027;-78
2021/08/13 02:13:06;;;;;;;1.10;0.80;;;19.80;72.40;;;;;;5058257;28;20028;-79
2021/08/13 02:15:34;;;;;;;0.90;0.80;;;19.80;72.50;;;;;;5057845;28;20498;-78
2021/08/13 02:18:11;;;;;;;1.15;0.82;;;19.80;72.50;;;;;;5058201;28;20123;-78
2021/08/13 02:20:39;;;;;;;0.70;0.50;;;19.80;72.60;;;;;;5057124;28;20128;-78
2021/08/13 02:23:09;;;;;;;1.10;0.70;;;19.80;72.40;;;;;;5056786;28;20124;-78
2021/08/13 02:25:35;;;;;;;1.50;0.75;;;19.80;72.10;;;;;;5058149;28;20546;-78
2021/08/13 02:28:00;;;;;;;0.90;0.60;;;19.80;71.90;;;;;;5056923;28;20066;-78
2021/08/13 02:30:28;;;;;;;0.93;0.60;;;19.80;72.30;;;;;;5073479;28;20059;-78
2021/08/13 02:32:54;;;;;;;1.10;0.80;;;19.80;72.10;;;;;;5057739;28;20044;-78
2021/08/13 02:35:19;;;;;;;0.70;0.55;;;19.80;72.30;;;;;;5056552;28;20555;-78
2021/08/13 02:38:09;;;;;;;0.98;0.60;;;19.80;72.20;;;;;;5058156;28;20025;-78
2021/08/13 02:40:41;;;;;;;1.13;0.70;;;19.80;72.20;;;;;;5062193;28;20048;-78
2021/08/13 02:43:15;;;;;;;1.00;0.70;;;19.80;72.10;;;;;;5077696;28;20289;-78
2021/08/13 02:45:45;;;;;;;1.23;0.68;;;19.80;72.10;;;;;;5077898;28;20210;-78
2021/08/13 02:48:13;;;;;;;;;;;19.80;72.20;;;;;;5073208;28;20075;-78
2021/08/13 02:50:40;;;;;;;1.30;0.70;;;19.80;72.10;;;;;;5057634;28;20825;-79
2021/08/13 02:53:16;;;;;;;1.02;0.73;;;19.80;72.50;;;;;;5056639;28;20032;-79
2021/08/13 02:55:47;;;;;;;0.90;0.60;;;19.80;72.00;;;;;;5067434;28;20387;-78
2021/08/13 02:58:17;;;;;;;;;;;19.80;72.10;;;;;;5078169;28;20044;-78
2021/08/13 03:00:44;;;;;;;0.85;0.60;;;19.80;72.30;;;;;;5068780;28;19909;-78
2021/08/13 03:03:16;;;;;;;1.00;0.70;;;19.80;72.20;;;;;;5057358;28;20504;-79
2021/08/13 03:05:46;;;;;;;1.15;0.70;;;19.70;72.40;;;;;;5057171;28;20044;-78
2021/08/13 03:08:12;;;;;;;1.10;0.70;;;19.80;72.60;;;;;;5056031;28;20029;-78
2021/08/13 03:10:39;;;;;;;0.80;0.60;;;19.70;72.30;;;;;;5057163;28;20104;-78
2021/08/13 03:13:08;;;;;;;0.95;0.60;;;19.80;72.10;;;;;;5057456;28;20036;-78
2021/08/13 03:15:36;;;;;;;0.90;0.70;;;19.80;72.50;;;;;;5057168;28;20025;-78
2021/08/13 03:18:03;;;;;;;0.73;0.50;;;19.70;72.40;;;;;;5057292;28;20084;-78
2021/08/13 03:20:29;;;;;;;1.10;0.80;;;19.80;72.60;;;;;;5057048;28;20051;-78
2021/08/13 03:22:55;;;;;;;1.08;0.60;;;19.70;72.50;;;;;;5055803;28;20119;-78
2021/08/13 03:25:22;;;;;;;1.45;0.80;;;19.80;72.50;;;;;;5057051;28;20036;-78
2021/08/13 03:27:49;;;;;;;1.10;0.60;;;19.80;72.50;;;;;;5055633;28;20112;-79
2021/08/13 03:30:14;;;;;;;0.90;0.60;;;19.70;72.50;;;;;;5057008;28;20905;-78
2021/08/13 03:32:42;;;;;;;1.20;0.80;;;19.70;72.60;;;;;;5055408;28;20029;-78
2021/08/13 03:35:09;;;;;;;1.05;0.70;;;19.70;72.40;;;;;;5072258;28;20025;-78
2021/08/13 03:37:35;;;;;;;0.98;0.60;;;19.70;72.40;;;;;;5055747;28;20032;-78
2021/08/13 03:40:03;;;;;;;1.13;0.68;;;19.70;72.50;;;;;;5071964;28;20021;-78
2021/08/13 03:42:29;;;;;;;1.02;0.70;;;19.70;72.50;;;;;;5075328;28;20428;-78
2021/08/13 03:44:54;;;;;;;0.90;0.60;;;19.80;72.50;;;;;;5071420;28;20021;-78
2021/08/13 03:47:20;;;;;;;1.35;0.75;;;19.70;72.20;;;;;;5055378;28;20058;-78
2021/08/13 03:49:46;;;;;;;1.45;0.77;;;19.70;72.30;;;;;;5072082;28;20021;-78
2021/08/13 03:52:11;;;;;;;1.00;0.63;;;19.60;73.20;;;;;;5056530;28;20025;-78
2021/08/13 03:54:37;;;;;;;0.90;0.65;;;19.60;73.20;;;;;;5055498;28;20414;-78
2021/08/13 03:57:03;;;;;;;1.40;0.60;;;19.70;73.00;;;;;;5056779;28;20096;-78
2021/08/13 03:59:29;;;;;;;1.23;0.70;;;19.70;73.20;;;;;;5054937;28;20025;-78
2021/08/13 04:01:54;;;;;;;1.10;0.60;;;19.70;72.80;;;;;;5054937;28;20039;-78
2021/08/13 04:04:20;;;;;;;1.05;0.70;;;19.70;72.90;;;;;;5055858;28;20376;-78
2021/08/13 04:06:48;;;;;;;0.98;0.60;;;19.70;72.70;;;;;;5071577;28;20500;-78
2021/08/13 04:09:14;;;;;;;0.80;0.50;;;19.70;72.70;;;;;;5071512;28;20521;-78
2021/08/13 04:11:39;;;;;;;0.70;0.50;;;19.70;72.40;;;;;;5070213;28;20033;-78
2021/08/13 04:14:06;;;;;;;0.80;0.55;;;19.70;72.60;;;;;;5054953;28;20518;-78
2021/08/13 04:16:31;;;;;;;0.73;0.50;;;19.60;73.00;;;;;;5056407;28;20029;-78
2021/08/13 04:18:57;;;;;;;1.30;0.60;;;19.60;73.00;;;;;;5054837;28;20074;-78
2021/08/13 04:21:23;;;;;;;0.75;0.60;;;19.60;73.30;;;;;;5054718;28;20029;-78
2021/08/13 04:23:50;;;;;;;1.20;0.70;;;19.60;73.30;;;;;;5055848;28;20021;-78
2021/08/13 04:26:16;;;;;;;0.70;0.55;;;19.60;73.30;;;;;;5073178;28;20087;-78
2021/08/13 04:28:42;;;;;;;1.55;0.80;;;19.60;73.70;;;;;;5073804;28;20036;-78
2021/08/13 04:31:07;;;;;;;0.90;0.60;;;19.60;73.20;;;;;;5055807;28;20043;-78
2021/08/13 04:33:34;;;;;;;1.00;0.60;;;19.60;73.00;;;;;;5055651;28;20059;-78
2021/08/13 04:36:00;;;;;;;0.77;0.52;;;19.60;73.40;;;;;;5072394;28;20031;-78
2021/08/13 04:38:26;;;;;;;0.90;0.63;;;19.60;73.40;;;;;;5075814;28;20020;-78
2021/08/13 04:40:59;;;;;;;1.02;0.70;;;19.60;73.30;;;;;;5074401;28;20028;-78
2021/08/13 04:43:25;;;;;;;0.90;0.50;;;19.50;74.00;;;;;;5074364;28;20057;-78
2021/08/13 04:45:50;;;;;;;0.90;0.70;;;19.50;73.50;;;;;;5074352;28;20229;-78
2021/08/13 04:48:16;;;;;;;1.00;0.52;;;19.60;73.50;;;;;;5063392;28;20036;-78
2021/08/13 04:50:42;;;;;;;0.90;0.70;;;19.50;73.90;;;;;;5054459;28;20083;-78
2021/08/13 04:53:07;;;;;;;1.10;0.68;;;19.50;73.70;;;;;;5054156;28;20032;-78
2021/08/13 04:55:33;;;;;;;1.00;0.70;;;19.60;73.30;;;;;;5054369;28;20021;-78
2021/08/13 04:58:20;;;;;;;0.90;0.60;;;19.60;73.20;;;;;;5063955;28;20032;-78
2021/08/13 05:00:47;;;;;;;1.00;0.80;;;19.50;73.20;;;;;;5069315;28;20562;-78
2021/08/13 05:03:13;;;;;;;0.80;0.60;;;19.60;73.00;;;;;;5055338;28;20032;-78
2021/08/13 05:05:39;;;;;;;1.23;0.60;;;19.50;73.30;;;;;;5054379;28;20029;-78
2021/08/13 05:08:05;;;;;;;1.00;0.68;;;19.60;73.30;;;;;;5054052;28;20069;-78
2021/08/13 05:10:31;;;;;;;1.08;0.70;;;19.60;73.20;;;;;;5057875;28;20391;-78
2021/08/13 05:12:57;;;;;;;1.55;0.80;;;19.60;73.40;;;;;;5075252;28;20028;-78
2021/08/13 05:15:23;;;;;;;0.82;0.50;;;19.60;73.30;;;;;;5076960;28;20043;-78
2021/08/13 05:17:48;;;;;;;0.80;0.60;;;19.60;73.10;;;;;;5078119;28;20031;-78
2021/08/13 05:20:14;;;;;;;0.80;0.60;;;19.60;73.00;;;;;;5061624;28;20025;-78
2021/08/13 05:22:40;;;;;;;0.95;0.60;;;19.60;73.10;;;;;;5059022;28;20090;-77
2021/08/13 05:25:08;;;;;;;1.10;0.75;;;19.60;73.30;;;;;;5079398;28;20138;-78
2021/08/13 05:27:34;;;;;;;0.77;0.55;;;19.60;72.90;;;;;;5078100;28;20033;-78
2021/08/13 05:30:00;;;;;;;1.17;0.80;;;19.70;72.90;;;;;;5075766;28;20054;-78
2021/08/13 05:32:27;;;;;;;1.08;0.60;;;19.60;73.20;;;;;;5059282;28;20112;-78
2021/08/13 05:34:53;;;;;;;1.20;0.73;;;19.60;73.80;;;;;;5059153;28;20016;-78
2021/08/13 05:37:19;;;;;;;1.48;0.75;;;19.60;73.20;;;;;;5057748;28;20021;-78
2021/08/13 05:39:45;;;;;;;1.17;0.75;;;19.60;73.10;;;;;;5064139;28;20036;-78
2021/08/13 05:42:11;;;;;;;0.80;0.50;;;19.70;73.40;;;;;;5076667;28;20031;-78
2021/08/13 05:44:38;;;;;;;1.02;0.60;;;19.60;73.60;;;;;;5079198;28;20029;-78
2021/08/13 05:47:04;;;;;;;1.00;0.73;;;19.70;72.90;;;;;;5077159;28;20020;-78
2021/08/13 05:49:30;;;;;;;0.95;0.70;;;19.80;72.70;;;;;;5077509;28;20146;-78
2021/08/13 05:51:57;;;;;;;0.93;0.68;;;19.80;72.80;;;;;;5078826;28;20021;-78
2021/08/13 05:54:22;;;;;;;1.10;0.70;;;19.80;72.60;;;;;;5068919;28;20029;-78
2021/08/13 05:56:48;;;;;;;1.52;0.95;;;19.80;72.70;;;;;;5057668;28;20047;-78
2021/08/13 05:59:14;;;;;;;0.75;0.60;;;19.80;72.60;;;;;;5057419;28;20128;-78
2021/08/13 06:01:39;;;;;;;1.20;0.75;;;19.80;72.20;;;;;;5057282;28;20065;-78
2021/08/13 06:04:05;;;;;;;0.90;0.70;;;19.80;72.10;;;;;;5058644;28;20502;-78
2021/08/13 06:06:30;;;;;;;1.10;0.75;;;19.90;71.70;;;;;;5057338;28;20033;-78
2021/08/13 06:08:56;;;;;;;1.42;0.70;;;20.00;71.60;;;;;;5072894;28;20029;-78
2021/08/13 06:11:22;;;;;;;1.27;0.70;;;20.00;72.40;;;;;;5057132;28;20025;-78
2021/08/13 06:13:48;;;;;;;0.75;0.55;;;19.90;72.50;;;;;;5058329;28;20028;-78
2021/08/13 06:16:20;;;;;;;1.05;0.60;;;20.00;71.60;;;;;;5057136;28;20162;-78
2021/08/13 06:18:45;;;;;;;1.15;0.80;;;19.90;71.30;;;;;;5058156;28;20049;-78
2021/08/13 06:21:12;;;;;;;1.17;0.70;;;19.90;71.80;;;;;;5058322;28;20025;-78
2021/08/13 06:23:37;;;;;;;1.65;0.60;;;20.00;71.80;;;;;;5058081;28;20027;-78
2021/08/13 06:26:03;;;;;;;1.13;0.70;;;20.20;71.30;;;;;;5076778;28;20491;-78
2021/08/13 06:28:28;;;;;;;0.80;0.50;;;20.30;71.00;;;;;;5065491;28;20407;-78
2021/08/13 06:30:54;;;;;;;1.00;0.73;;;20.30;70.90;;;;;;5058060;28;20480;-78
2021/08/13 06:33:20;;;;;;;0.95;0.63;;;20.30;70.60;;;;;;5057878;28;20033;-79
2021/08/13 06:35:46;;;;;;;0.75;0.50;;;20.30;70.70;;;;;;5057978;28;20063;-78
2021/08/13 06:38:11;;;;;;;0.88;0.60;;;20.40;70.20;;;;;;5056602;28;20021;-78
2021/08/13 06:40:37;;;;;;;0.80;0.50;;;20.50;70.50;;;;;;5063827;28;20024;-78
2021/08/13 06:43:03;;;;;;;1.00;0.55;;;20.50;70.30;;;;;;5076530;28;20553;-78
2021/08/13 06:45:28;;;;;;;0.90;0.60;;;20.50;70.20;;;;;;5076811;28;20037;-78
2021/08/13 06:47:55;;;;;;;1.05;0.63;;;20.50;69.90;;;;;;5076775;28;20465;-78
2021/08/13 06:50:21;;;;;;;0.88;0.60;;;20.60;69.90;;;;;;5058468;28;20021;-78
2021/08/13 06:52:47;;;;;;;1.25;0.77;;;20.50;69.90;;;;;;5057509;28;20076;-78
2021/08/13 06:55:13;;;;;;;0.98;0.60;;;20.60;70.20;;;;;;5073217;28;20031;-78
2021/08/13 06:57:39;;;;;;;0.90;0.60;;;20.70;69.70;;;;;;5056421;28;20028;-78
2021/08/13 07:00:08;;;;;;;0.95;0.60;;;20.80;69.40;;;;;;5077514;28;20099;-78
2021/08/13 07:02:33;;;;;;;0.70;0.45;;;20.80;69.70;;;;;;5077624;28;20112;-78
2021/08/13 07:04:59;;;;;;;0.70;0.47;;;20.90;68.40;;;;;;5077538;28;20064;-78
2021/08/13 07:07:25;;;;;;;0.80;0.50;;;20.90;68.80;;;;;;5064497;28;20025;-78
2021/08/13 07:09:51;;;;;;;0.70;0.50;;;21.00;68.60;;;;;;5057477;28;20049;-78
2021/08/13 07:12:17;;;;;;;1.65;0.40;;;21.30;67.90;;;;;;5057522;28;20496;-78
2021/08/13 07:14:43;;;;;;;0.85;0.57;;;21.50;67.10;;;;;;5057314;28;20017;-78
2021/08/13 07:17:09;;;;;;;0.70;0.40;;;21.60;66.60;;;;;;5072032;28;20029;-78
2021/08/13 07:19:35;;;;;;;0.60;0.40;;;21.70;66.10;;;;;;5077258;28;20025;-78
2021/08/13 07:22:02;;;;;;;1.10;0.50;;;21.70;65.70;;;;;;5067158;28;20108;-78
2021/08/13 07:24:27;;;;;;;0.90;0.57;;;22.00;65.70;;;;;;5057150;28;20032;-78
2021/08/13 07:26:53;;;;;;;0.70;0.43;;;23.80;61.40;;;;;;5057074;28;20025;-77
2021/08/13 07:29:21;;;;;;;0.73;0.32;;;25.30;56.60;;;;;;5057000;28;20055;-78
2021/08/13 07:31:47;;;;;;;1.20;0.50;;;25.70;55.30;;;;;;5067769;28;20017;-77
2021/08/13 07:34:12;;;;;;;0.75;0.32;;;25.20;54.90;;;;;;5076798;28;20039;-78
2021/08/13 07:36:38;;;;;;;0.90;0.40;;;24.70;56.10;;;;;;5076818;28;20602;-78
2021/08/13 07:39:04;;;;;;;0.52;0.30;;;24.40;56.90;;;;;;5063301;28;20112;-78
2021/08/13 07:41:29;;;;;;;0.17;0.15;;;24.70;56.00;;;;;;5070059;28;20035;-78
2021/08/13 07:43:55;;;;;;;0.45;0.20;;;24.30;56.10;;;;;;5075417;28;20139;-78
2021/08/13 07:46:21;;;;;;;0.60;0.35;;;24.20;57.60;;;;;;5076614;28;20586;-77
2021/08/13 07:48:46;;;;;;;0.50;0.20;;;24.90;55.60;;;;;;5075260;28;20454;-76
2021/08/13 07:51:12;;;;;;;0.95;0.30;;;24.80;55.10;;;;;;5066934;28;20053;-76
2021/08/13 07:53:38;;;;;;;0.65;0.30;;;24.70;55.60;;;;;;5055097;28;20033;-76
2021/08/13 07:56:03;;;;;;;0.95;0.30;;;24.50;56.60;;;;;;5056481;28;20456;-77
2021/08/13 07:58:29;;;;;;;0.90;0.50;;;25.20;55.10;;;;;;5068327;28;20436;-77
2021/08/13 08:00:55;;;;;;;1.58;0.40;;;27.20;50.30;;;;;;5075131;28;20029;-77
2021/08/13 08:03:20;;;;;;;0.40;0.30;;;29.00;45.90;;;;;;5054837;28;20025;-77
2021/08/13 08:05:46;;;;;;;0.68;0.20;;;29.30;45.20;;;;;;5056254;28;20036;-77
2021/08/13 08:08:12;;;;;;;0.30;0.10;;;28.20;46.40;;;;;;5056302;28;20025;-77
2021/08/13 08:10:37;;;;;;;0.47;0.20;;;27.10;47.60;;;;;;5057827;28;20116;-77
2021/08/13 08:13:03;;;;;;;0.60;0.20;;;26.20;49.80;;;;;;5074589;28;20082;-76
2021/08/13 08:15:29;;;;;;;0.80;0.30;;;25.70;51.10;;;;;;5072719;28;20078;-77
2021/08/13 08:17:55;;;;;;;0.70;0.50;;;25.30;52.00;;;;;;5055972;28;20474;-76
2021/08/13 08:20:21;;;;;;;0.60;0.30;;;27.40;48.80;;;;;;5055836;28;20029;-77
2021/08/13 08:22:47;;;;;;;0.30;0.20;;;30.20;43.10;;;;;;5056023;28;20040;-77
2021/08/13 08:25:12;;;;;;;0.40;0.30;;;32.30;38.00;;;;;;5055959;28;20395;-77
2021/08/13 08:27:38;;;;;;;0.30;0.20;;;33.80;35.50;;;;;;5056005;28;20029;-78
2021/08/13 08:30:05;;;;;;;0.63;0.30;;;35.20;33.80;;;;;;5055652;28;20029;-78
2021/08/13 08:32:31;;;;;;;0.60;0.30;;;36.00;31.20;;;;;;5054237;28;20029;-78
2021/08/13 08:34:57;;;;;;;1.05;0.20;;;36.90;30.90;;;;;;5055779;28;20502;-78
2021/08/13 08:37:22;;;;;;;0.45;0.20;;;35.50;31.40;;;;;;5055539;28;20513;-78
2021/08/13 08:39:48;;;;;;;0.75;0.32;;;35.10;32.30;;;;;;5058747;28;20064;-78
2021/08/13 08:42:16;;;;;;;0.50;0.30;;;36.00;30.60;;;;;;5075557;28;20059;-78
2021/08/13 08:44:42;;;;;;;0.40;0.30;;;36.90;29.60;;;;;;5057021;28;20021;-78
2021/08/13 08:47:09;;;;;;;0.30;0.20;;;36.00;29.40;;;;;;5055505;28;20403;-78
2021/08/13 08:49:42;;;;;;;0.45;0.20;;;36.90;28.60;;;;;;5054623;28;20476;-77
2021/08/13 08:52:09;;;;;;;0.63;0.32;;;37.30;28.80;;;;;;5054183;28;20017;-78
2021/08/13 08:54:35;;;;;;;0.70;0.30;;;37.30;27.50;;;;;;5055615;28;20021;-77
2021/08/13 08:57:03;;;;;;;0.80;0.50;;;37.70;26.80;;;;;;5055447;28;20476;-78
2021/08/13 08:59:29;;;;;;;;;;;38.00;26.70;;;;;;5055714;28;20036;-78
2021/08/13 09:01:56;;;;;;;0.50;0.30;;;38.30;27.60;;;;;;5055364;28;19991;-77
2021/08/13 09:04:22;;;;;;;0.57;0.40;;;38.60;27.20;;;;;;5055345;28;20029;-78
2021/08/13 09:06:48;;;;;;;0.60;0.32;;;39.00;27.10;;;;;;5055431;28;20039;-78
2021/08/13 09:09:13;;;;;;;0.70;0.40;;;39.40;26.70;;;;;;5055602;28;20021;-77
2021/08/13 09:11:41;;;;;;;0.60;0.40;;;39.00;26.10;;;;;;5053957;28;20052;-78
2021/08/13 09:14:11;;;;;;;0.63;0.40;;;39.20;26.40;;;;;;5068454;28;20016;-78
2021/08/13 09:16:39;;;;;;;0.38;0.30;;;39.40;25.50;;;;;;5069912;28;20025;-78
2021/08/13 09:19:08;;;;;;;0.95;0.30;;;39.60;25.70;;;;;;5055230;28;20028;-78
2021/08/13 09:21:35;;;;;;;0.63;0.30;;;39.20;25.90;;;;;;5059753;28;20059;-77
2021/08/13 09:24:12;;;;;;;0.88;0.38;;;39.40;26.50;;;;;;5075349;28;20043;-78
2021/08/13 09:26:44;;;;;;;0.70;0.30;;;39.10;26.60;;;;;;5065621;28;20382;-78
2021/08/13 09:29:16;;;;;;;0.38;0.20;;;38.10;26.60;;;;;;5055208;28;20033;-78
2021/08/13 09:31:52;;;;;;;0.55;0.30;;;37.00;28.40;;;;;;5055010;28;20027;-78
2021/08/13 09:34:27;;;;;;;0.50;0.30;;;36.90;29.20;;;;;;5055235;28;20032;-77
2021/08/13 09:36:54;;;;;;;0.60;0.30;;;36.70;29.90;;;;;;5055248;28;20021;-78
2021/08/13 09:39:25;;;;;;;0.60;0.30;;;36.80;29.00;;;;;;5054875;28;20040;-77
2021/08/13 09:41:53;;;;;;;0.30;0.20;;;36.00;29.20;;;;;;5071142;28;20051;-77
2021/08/13 09:44:25;;;;;;;1.00;0.28;;;35.60;30.00;;;;;;5071036;28;20045;-77
2021/08/13 09:47:01;;;;;;;0.77;0.32;;;34.70;29.60;;;;;;5054966;28;20037;-77
2021/08/13 09:49:34;;;;;;;0.47;0.20;;;34.40;31.90;;;;;;5054952;28;20800;-77
2021/08/13 09:52:14;;;;;;;0.43;0.20;;;34.00;32.50;;;;;;5054954;28;20025;-77
2021/08/13 09:54:41;;;;;;;0.60;0.40;;;33.80;32.20;;;;;;5054699;28;20033;-77
2021/08/13 09:57:15;;;;;;;1.00;0.60;;;33.80;32.20;;;;;;5054959;28;20021;-77
2021/08/13 10:00:02;;;;;;;0.70;0.30;;;34.00;31.90;;;;;;5054985;28;20025;-77
2021/08/13 10:02:35;;;;;;;0.65;0.30;;;34.10;32.40;;;;;;5057554;28;20035;-77
2021/08/13 10:05:14;;;;;;;0.82;0.38;;;34.30;30.80;;;;;;5058625;28;20125;-78
2021/08/13 10:07:47;;;;;;;0.40;0.20;;;34.20;31.40;;;;;;5073892;28;20055;-77
2021/08/13 10:10:13;;;;;;;0.40;0.20;;;34.40;32.50;;;;;;5058186;28;20039;-77
2021/08/13 10:12:44;;;;;;;0.50;0.30;;;35.10;32.70;;;;;;5058340;28;20107;-78
2021/08/13 10:15:10;;;;;;;0.50;0.30;;;35.30;29.40;;;;;;5058478;28;20036;-77
2021/08/13 10:17:37;;;;;;;0.85;0.40;;;35.70;31.50;;;;;;5058166;28;20060;-77
2021/08/13 10:20:03;;;;;;;0.47;0.30;;;36.30;31.10;;;;;;5058368;28;20052;-77
2021/08/13 10:22:29;;;;;;;0.30;0.20;;;35.80;29.90;;;;;;5058383;28;20035;-77
2021/08/13 10:24:55;;;;;;;0.60;0.30;;;35.20;29.90;;;;;;5056917;28;20026;-78
2021/08/13 10:27:22;;;;;;;0.65;0.40;;;35.20;30.40;;;;;;5057104;28;20587;-77
2021/08/13 10:29:48;;;;;;;1.13;0.38;;;34.90;30.10;;;;;;5073698;28;20059;-77
2021/08/13 10:32:20;;;;;;;0.57;0.20;;;34.90;31.40;;;;;;5057979;28;20017;-77
2021/08/13 10:34:46;;;;;;;0.50;0.20;;;34.80;29.80;;;;;;5057946;28;20044;-77
2021/08/13 10:37:14;;;;;;;0.68;0.20;;;34.40;30.80;;;;;;5073102;28;20021;-77
2021/08/13 10:39:41;;;;;;;0.63;0.30;;;33.70;31.90;;;;;;5077797;28;20031;-77
2021/08/13 10:42:13;;;;;;;0.47;0.20;;;32.90;33.40;;;;;;5077663;28;20009;-77
2021/08/13 10:44:46;;;;;;;0.80;0.30;;;32.40;34.90;;;;;;5076306;28;20482;-77
2021/08/13 10:47:16;;;;;;;0.40;0.20;;;31.60;36.00;;;;;;5077738;28;20032;-76
2021/08/13 10:49:46;;;;;;;0.45;0.25;;;31.30;34.90;;;;;;5077788;28;20544;-77
2021/08/13 10:52:12;;;;;;;0.40;0.20;;;30.80;38.30;;;;;;5062938;28;20027;-77
2021/08/13 10:54:42;;;;;;;0.80;0.30;;;30.20;38.60;;;;;;5057894;28;20438;-76
2021/08/13 10:57:12;;;;;;;0.50;0.22;;;29.90;38.00;;;;;;5057768;28;20029;-76
2021/08/13 10:59:41;;;;;;;0.50;0.20;;;29.90;38.40;;;;;;5057494;28;20029;-76
2021/08/13 11:02:17;;;;;;;0.27;0.20;;;29.60;40.60;;;;;;5072954;28;20013;-77
2021/08/13 11:04:48;;;;;;;0.40;0.22;;;29.70;39.70;;;;;;5057477;28;20029;-77
2021/08/13 11:07:14;;;;;;;0.43;0.20;;;29.70;38.80;;;;;;5057453;28;20372;-76
2021/08/13 11:09:42;;;;;;;0.30;0.20;;;29.40;41.80;;;;;;5057379;28;20024;-76
2021/08/13 11:12:11;;;;;;;0.68;0.38;;;29.30;41.60;;;;;;5055532;28;20063;-76
2021/08/13 11:14:49;;;;;;;0.47;0.20;;;29.00;40.00;;;;;;5056798;28;20106;-76
2021/08/13 11:17:33;;;;;;;0.60;0.30;;;28.90;39.80;;;;;;5057017;28;20029;-76
2021/08/13 11:20:01;;;;;;;0.77;0.25;;;29.00;42.40;;;;;;5057346;28;20017;-77
2021/08/13 11:22:34;;;;;;;0.70;0.30;;;29.10;41.30;;;;;;5062833;28;20032;-77
2021/08/13 11:25:01;;;;;;;0.80;0.30;;;29.20;41.00;;;;;;5077091;28;20024;-77
2021/08/13 11:27:27;;;;;;;0.40;0.20;;;29.30;40.10;;;;;;5073075;28;20062;-76
2021/08/13 11:29:53;;;;;;;0.80;0.40;;;29.20;40.30;;;;;;5057005;28;20096;-77
2021/08/13 11:32:30;;;;;;;0.98;0.20;;;29.10;38.80;;;;;;5062125;28;20472;-76
2021/08/13 11:35:03;;;;;;;0.63;0.22;;;28.70;39.70;;;;;;5056945;28;20441;-76
2021/08/13 11:37:35;;;;;;;0.70;0.30;;;28.60;42.40;;;;;;5056936;28;20031;-76
2021/08/13 11:40:13;;;;;;;0.55;0.20;;;28.60;41.20;;;;;;5056164;28;20021;-77
2021/08/13 11:42:50;;;;;;;0.77;0.20;;;28.70;41.90;;;;;;5056567;28;20056;-77
2021/08/13 11:45:16;;;;;;;0.73;0.30;;;28.90;40.90;;;;;;5056598;28;20060;-77
2021/08/13 11:47:46;;;;;;;0.47;0.20;;;28.90;40.90;;;;;;5056865;28;20654;-76
2021/08/13 11:50:13;;;;;;;0.45;0.20;;;29.10;39.60;;;;;;5056564;28;20032;-76
2021/08/13 11:52:46;;;;;;;1.02;0.30;;;29.00;39.40;;;;;;5056488;28;20040;-77
2021/08/13 11:55:26;;;;;;;0.40;0.20;;;28.80;39.10;;;;;;5056733;28;20491;-77
2021/08/13 11:57:53;;;;;;;0.35;0.20;;;28.70;38.20;;;;;;5056484;28;20053;-76
2021/08/13 12:00:20;;;;;;;0.43;0.20;;;28.70;40.00;;;;;;5055196;28;20035;-76
2021/08/13 12:02:47;;;;;;;1.13;0.25;;;28.70;40.90;;;;;;5056147;28;20052;-76
2021/08/13 12:05:14;;;;;;;0.68;0.30;;;28.70;38.80;;;;;;5056296;28;20060;-76
2021/08/13 12:07:41;;;;;;;0.55;0.30;;;28.70;39.10;;;;;;5056306;28;20050;-76
2021/08/13 12:10:18;;;;;;;0.82;0.43;;;28.30;41.70;;;;;;5056070;28;20503;-77
2021/08/13 12:12:44;;;;;;;0.75;0.40;;;28.50;40.30;;;;;;5056058;28;20330;-76
2021/08/13 12:15:11;;;;;;;0.75;0.30;;;28.60;40.20;;;;;;5056207;28;20025;-76
2021/08/13 12:17:37;;;;;;;0.55;0.20;;;28.70;38.70;;;;;;5056091;28;20024;-76
2021/08/13 12:20:08;;;;;;;0.45;0.20;;;28.60;38.80;;;;;;5055863;28;20021;-77
2021/08/13 12:22:40;;;;;;;1.02;0.30;;;28.70;38.70;;;;;;5056176;28;20051;-77
2021/08/13 12:25:11;;;;;;;0.73;0.30;;;28.80;38.50;;;;;;5072438;28;20028;-76
2021/08/13 12:27:39;;;;;;;0.50;0.20;;;28.40;36.60;;;;;;5069581;28;20021;-76
2021/08/13 12:30:20;;;;;;;0.70;0.38;;;28.50;37.10;;;;;;5055902;28;20487;-76
2021/08/13 12:32:47;;;;;;;0.38;0.25;;;28.50;37.80;;;;;;5055701;28;20033;-76
2021/08/13 12:35:13;;;;;;;0.38;0.20;;;28.60;36.30;;;;;;5055896;28;20127;-77
2021/08/13 12:37:40;;;;;;;0.73;0.22;;;28.80;37.60;;;;;;5054251;28;20037;-77
2021/08/13 12:40:09;;;;;;;0.70;0.30;;;28.70;35.80;;;;;;5057670;28;20100;-77
2021/08/13 12:42:35;;;;;;;0.80;0.40;;;28.60;35.50;;;;;;5074225;28;20059;-77
2021/08/13 12:45:06;;;;;;;0.52;0.20;;;28.70;36.20;;;;;;5069866;28;20116;-76
2021/08/13 12:47:32;;;;;;;0.93;0.28;;;28.70;35.70;;;;;;5055555;28;20463;-77
2021/08/13 12:49:58;;;;;;;0.43;0.20;;;28.80;35.10;;;;;;5071578;28;20093;-77
2021/08/13 12:52:27;;;;;;;0.30;0.13;;;28.50;35.10;;;;;;5075894;28;20069;-76